sensor_id;sensor_type;location;lat;lon;timestamp;pressure;altitude;pressure_sealevel;temperature;humidity
54978;BME280;40873;47.522;19.106;2023-04-29T00:01:06;100270.78;;;11.44;100.00
54978;BME280;40873;47.522;19.106;2023-04-29T00:03:34;100274.75;;;11.37;100.00
54978;BME280;40873;47.522;19.106;2023-04-29T00:06:01;100262.41;;;11.37;100.00
54978;BME280;40873;47.522;19.106;2023-04-29T00:08:28;100265.78;;;11.39;100.00
54978;BME280;40873;47.522;19.106;2023-04-29T00:10:55;100259.13;;;11.34;100.00
54978;BME280;40873;47.522;19.106;2023-04-29T00:13:23;100261.66;;;11.35;100.00
54978;BME280;40873;47.522;19.106;2023-04-29T00:15:50;100266.00;;;11.36;100.00
54978;BME280;40873;47.522;19.106;2023-04-29T00:18:17;100255.59;;;11.33;100.00
54978;BME280;40873;47.522;19.106;2023-04-29T00:20:44;100253.06;;;11.32;100.00
54978;BME280;40873;47.522;19.106;2023-04-29T00:23:11;100247.44;;;11.23;100.00
54978;BME280;40873;47.522;19.106;2023-04-29T00:25:38;100244.63;;;11.27;100.00
54978;BME280;40873;47.522;19.106;2023-04-29T00:28:05;100238.56;;;11.24;100.00
54978;BME280;40873;47.522;19.106;2023-04-29T00:30:33;100249.25;;;11.23;100.00
54978;BME280;40873;47.522;19.106;2023-04-29T00:33:00;100242.38;;;11.20;100.00
54978;BME280;40873;47.522;19.106;2023-04-29T00:35:27;100246.03;;;11.18;100.00
54978;BME280;40873;47.522;19.106;2023-04-29T00:37:54;100245.00;;;11.20;100.00
54978;BME280;40873;47.522;19.106;2023-04-29T00:40:21;100252.94;;;11.20;100.00
54978;BME280;40873;47.522;19.106;2023-04-29T00:42:48;100254.63;;;11.21;100.00
54978;BME280;40873;47.522;19.106;2023-04-29T00:45:15;100256.22;;;11.24;100.00
54978;BME280;40873;47.522;19.106;2023-04-29T00:47:42;100255.88;;;11.16;100.00
54978;BME280;40873;47.522;19.106;2023-04-29T00:50:09;100255.03;;;11.15;100.00
54978;BME280;40873;47.522;19.106;2023-04-29T00:52:37;100256.72;;;11.16;100.00
54978;BME280;40873;47.522;19.106;2023-04-29T00:55:06;100254.06;;;11.16;100.00
54978;BME280;40873;47.522;19.106;2023-04-29T00:57:34;100253.97;;;11.18;100.00
54978;BME280;40873;47.522;19.106;2023-04-29T01:00:01;100261.03;;;11.17;100.00
54978;BME280;40873;47.522;19.106;2023-04-29T01:02:29;100261.25;;;11.14;100.00
54978;BME280;40873;47.522;19.106;2023-04-29T01:04:57;100262.72;;;11.18;100.00
54978;BME280;40873;47.522;19.106;2023-04-29T01:10:00;100252.72;;;11.23;100.00
54978;BME280;40873;47.522;19.106;2023-04-29T01:15:09;100266.13;;;11.20;100.00
54978;BME280;40873;47.522;19.106;2023-04-29T01:17:50;100259.25;;;11.18;100.00
54978;BME280;40873;47.522;19.106;2023-04-29T01:20:21;100266.72;;;11.11;100.00
54978;BME280;40873;47.522;19.106;2023-04-29T01:22:49;100269.34;;;11.11;100.00
54978;BME280;40873;47.522;19.106;2023-04-29T01:25:16;100263.03;;;11.14;100.00
54978;BME280;40873;47.522;19.106;2023-04-29T01:33:12;100251.91;;;11.09;100.00
54978;BME280;40873;47.522;19.106;2023-04-29T01:38:58;100247.25;;;11.00;100.00
54978;BME280;40873;47.522;19.106;2023-04-29T01:41:43;100250.06;;;10.96;100.00
54978;BME280;40873;47.522;19.106;2023-04-29T01:44:15;100238.47;;;10.99;100.00
54978;BME280;40873;47.522;19.106;2023-04-29T01:46:49;100239.50;;;10.96;100.00
54978;BME280;40873;47.522;19.106;2023-04-29T01:49:19;100251.56;;;11.01;100.00
54978;BME280;40873;47.522;19.106;2023-04-29T01:51:47;100256.63;;;11.04;95.35
54978;BME280;40873;47.522;19.106;2023-04-29T01:54:13;100239.69;;;11.08;91.88
54978;BME280;40873;47.522;19.106;2023-04-29T01:56:44;100245.59;;;11.11;93.04
54978;BME280;40873;47.522;19.106;2023-04-29T01:59:10;100242.00;;;11.12;92.38
54978;BME280;40873;47.522;19.106;2023-04-29T02:01:38;100246.34;;;11.13;90.90
54978;BME280;40873;47.522;19.106;2023-04-29T02:04:04;100246.88;;;11.18;87.61
54978;BME280;40873;47.522;19.106;2023-04-29T02:06:32;100253.78;;;11.21;87.79
54978;BME280;40873;47.522;19.106;2023-04-29T02:08:59;100248.50;;;11.21;87.27
54978;BME280;40873;47.522;19.106;2023-04-29T02:11:26;100251.38;;;11.31;84.48
54978;BME280;40873;47.522;19.106;2023-04-29T02:13:53;100245.16;;;11.32;84.29
54978;BME280;40873;47.522;19.106;2023-04-29T02:16:20;100250.53;;;11.30;85.01
54978;BME280;40873;47.522;19.106;2023-04-29T02:18:47;100240.81;;;11.31;83.00
54978;BME280;40873;47.522;19.106;2023-04-29T02:21:14;100243.69;;;11.28;84.86
54978;BME280;40873;47.522;19.106;2023-04-29T02:23:41;100246.31;;;11.28;85.44
54978;BME280;40873;47.522;19.106;2023-04-29T02:26:08;100242.81;;;11.27;84.92
54978;BME280;40873;47.522;19.106;2023-04-29T02:28:36;100239.25;;;11.28;81.71
54978;BME280;40873;47.522;19.106;2023-04-29T02:31:03;100249.31;;;11.36;78.96
54978;BME280;40873;47.522;19.106;2023-04-29T02:33:30;100241.09;;;11.26;81.18
54978;BME280;40873;47.522;19.106;2023-04-29T02:35:57;100244.31;;;11.31;79.29
54978;BME280;40873;47.522;19.106;2023-04-29T02:38:25;100234.84;;;11.41;78.33
54978;BME280;40873;47.522;19.106;2023-04-29T02:40:52;100235.94;;;11.24;79.44
54978;BME280;40873;47.522;19.106;2023-04-29T02:43:19;100232.44;;;11.24;79.69
54978;BME280;40873;47.522;19.106;2023-04-29T02:45:46;100228.13;;;11.23;81.58
54978;BME280;40873;47.522;19.106;2023-04-29T02:48:13;100233.63;;;11.33;79.05
54978;BME280;40873;47.522;19.106;2023-04-29T02:50:40;100226.88;;;11.29;78.89
54978;BME280;40873;47.522;19.106;2023-04-29T02:53:07;100227.72;;;11.29;78.92
54978;BME280;40873;47.522;19.106;2023-04-29T02:55:34;100228.84;;;11.25;78.46
54978;BME280;40873;47.522;19.106;2023-04-29T02:58:01;100224.69;;;11.35;77.58
54978;BME280;40873;47.522;19.106;2023-04-29T03:00:29;100218.41;;;11.23;79.62
54978;BME280;40873;47.522;19.106;2023-04-29T03:02:56;100221.31;;;11.19;81.70
54978;BME280;40873;47.522;19.106;2023-04-29T03:05:24;100214.91;;;11.23;78.82
54978;BME280;40873;47.522;19.106;2023-04-29T03:07:51;100221.75;;;11.13;79.33
54978;BME280;40873;47.522;19.106;2023-04-29T03:10:18;100221.31;;;11.19;78.16
54978;BME280;40873;47.522;19.106;2023-04-29T03:12:45;100221.88;;;11.24;77.64
54978;BME280;40873;47.522;19.106;2023-04-29T03:15:12;100221.44;;;11.17;78.01
54978;BME280;40873;47.522;19.106;2023-04-29T03:17:39;100229.66;;;11.13;79.12
54978;BME280;40873;47.522;19.106;2023-04-29T03:20:07;100225.25;;;11.13;79.78
54978;BME280;40873;47.522;19.106;2023-04-29T03:22:36;100226.25;;;11.11;80.13
54978;BME280;40873;47.522;19.106;2023-04-29T03:25:04;100221.81;;;11.11;79.29
54978;BME280;40873;47.522;19.106;2023-04-29T03:27:31;100220.47;;;11.18;77.54
54978;BME280;40873;47.522;19.106;2023-04-29T03:29:58;100225.97;;;11.15;78.94
54978;BME280;40873;47.522;19.106;2023-04-29T03:32:25;100222.59;;;11.13;80.02
54978;BME280;40873;47.522;19.106;2023-04-29T03:34:53;100229.47;;;11.16;80.95
54978;BME280;40873;47.522;19.106;2023-04-29T03:37:20;100239.28;;;11.14;78.53
54978;BME280;40873;47.522;19.106;2023-04-29T03:39:47;100240.88;;;11.16;80.77
54978;BME280;40873;47.522;19.106;2023-04-29T03:42:14;100240.13;;;11.14;77.59
54978;BME280;40873;47.522;19.106;2023-04-29T03:44:41;100226.94;;;11.14;77.79
54978;BME280;40873;47.522;19.106;2023-04-29T03:47:11;100238.44;;;11.13;77.58
54978;BME280;40873;47.522;19.106;2023-04-29T03:49:39;100235.78;;;11.13;77.75
54978;BME280;40873;47.522;19.106;2023-04-29T03:52:07;100242.88;;;11.13;77.91
54978;BME280;40873;47.522;19.106;2023-04-29T03:54:34;100242.09;;;11.11;77.19
54978;BME280;40873;47.522;19.106;2023-04-29T03:57:01;100245.69;;;11.10;77.76
54978;BME280;40873;47.522;19.106;2023-04-29T03:59:29;100250.88;;;11.11;77.35
54978;BME280;40873;47.522;19.106;2023-04-29T04:01:56;100239.97;;;11.30;74.66
54978;BME280;40873;47.522;19.106;2023-04-29T04:04:24;100246.31;;;11.28;74.84
54978;BME280;40873;47.522;19.106;2023-04-29T04:06:52;100254.97;;;11.30;74.40
54978;BME280;40873;47.522;19.106;2023-04-29T04:09:19;100254.13;;;11.29;75.10
54978;BME280;40873;47.522;19.106;2023-04-29T04:11:46;100258.28;;;11.19;75.25
54978;BME280;40873;47.522;19.106;2023-04-29T04:14:15;100264.53;;;11.18;74.44
54978;BME280;40873;47.522;19.106;2023-04-29T04:16:42;100263.78;;;11.16;74.83
54978;BME280;40873;47.522;19.106;2023-04-29T04:19:09;100267.00;;;11.21;74.58
54978;BME280;40873;47.522;19.106;2023-04-29T04:21:36;100268.22;;;11.15;77.84
54978;BME280;40873;47.522;19.106;2023-04-29T04:24:09;100268.41;;;11.12;77.52
54978;BME280;40873;47.522;19.106;2023-04-29T04:26:36;100266.81;;;11.10;79.03
54978;BME280;40873;47.522;19.106;2023-04-29T04:29:03;100267.09;;;11.05;81.10
54978;BME280;40873;47.522;19.106;2023-04-29T04:31:30;100269.00;;;11.03;82.90
54978;BME280;40873;47.522;19.106;2023-04-29T04:33:57;100269.94;;;11.02;82.87
54978;BME280;40873;47.522;19.106;2023-04-29T04:36:25;100264.88;;;10.99;83.05
54978;BME280;40873;47.522;19.106;2023-04-29T04:38:52;100268.84;;;10.92;89.31
54978;BME280;40873;47.522;19.106;2023-04-29T04:41:19;100262.69;;;10.91;86.34
54978;BME280;40873;47.522;19.106;2023-04-29T04:43:46;100257.41;;;10.91;86.80
54978;BME280;40873;47.522;19.106;2023-04-29T04:46:14;100258.00;;;10.82;88.18
54978;BME280;40873;47.522;19.106;2023-04-29T04:48:42;100253.47;;;10.84;86.93
54978;BME280;40873;47.522;19.106;2023-04-29T04:51:10;100259.91;;;10.80;89.46
54978;BME280;40873;47.522;19.106;2023-04-29T04:53:38;100257.25;;;10.80;88.92
54978;BME280;40873;47.522;19.106;2023-04-29T04:56:06;100253.00;;;10.78;88.72
54978;BME280;40873;47.522;19.106;2023-04-29T04:58:36;100252.16;;;10.77;89.05
54978;BME280;40873;47.522;19.106;2023-04-29T05:01:03;100249.03;;;10.70;88.54
54978;BME280;40873;47.522;19.106;2023-04-29T05:03:30;100248.97;;;10.72;87.59
54978;BME280;40873;47.522;19.106;2023-04-29T05:05:58;100246.13;;;10.75;87.46
54978;BME280;40873;47.522;19.106;2023-04-29T05:08:26;100243.00;;;10.83;87.92
54978;BME280;40873;47.522;19.106;2023-04-29T05:10:53;100245.25;;;10.89;86.16
54978;BME280;40873;47.522;19.106;2023-04-29T05:13:20;100242.34;;;10.93;86.42
54978;BME280;40873;47.522;19.106;2023-04-29T05:15:47;100249.50;;;11.06;85.54
54978;BME280;40873;47.522;19.106;2023-04-29T05:18:14;100248.44;;;11.08;85.00
54978;BME280;40873;47.522;19.106;2023-04-29T05:20:41;100248.22;;;11.11;89.54
54978;BME280;40873;47.522;19.106;2023-04-29T05:23:08;100253.22;;;11.16;85.85
54978;BME280;40873;47.522;19.106;2023-04-29T05:25:35;100250.22;;;11.08;84.35
54978;BME280;40873;47.522;19.106;2023-04-29T05:28:02;100258.91;;;11.10;84.10
54978;BME280;40873;47.522;19.106;2023-04-29T05:30:30;100256.59;;;11.18;82.28
54978;BME280;40873;47.522;19.106;2023-04-29T05:32:57;100259.34;;;11.16;81.30
54978;BME280;40873;47.522;19.106;2023-04-29T05:35:24;100253.50;;;11.11;82.63
54978;BME280;40873;47.522;19.106;2023-04-29T05:37:52;100261.34;;;11.13;82.35
54978;BME280;40873;47.522;19.106;2023-04-29T05:40:19;100259.94;;;11.07;82.64
54978;BME280;40873;47.522;19.106;2023-04-29T05:42:46;100258.91;;;11.10;83.78
54978;BME280;40873;47.522;19.106;2023-04-29T05:45:13;100268.00;;;11.18;81.71
54978;BME280;40873;47.522;19.106;2023-04-29T05:47:40;100267.56;;;11.12;82.89
54978;BME280;40873;47.522;19.106;2023-04-29T05:50:07;100269.56;;;11.08;83.19
54978;BME280;40873;47.522;19.106;2023-04-29T05:52:34;100267.09;;;11.05;83.33
54978;BME280;40873;47.522;19.106;2023-04-29T05:55:01;100267.97;;;11.06;82.91
54978;BME280;40873;47.522;19.106;2023-04-29T05:57:28;100266.19;;;11.06;83.82
54978;BME280;40873;47.522;19.106;2023-04-29T05:59:55;100266.19;;;11.06;83.80
54978;BME280;40873;47.522;19.106;2023-04-29T06:02:22;100260.34;;;11.01;84.70
54978;BME280;40873;47.522;19.106;2023-04-29T06:04:49;100266.06;;;11.08;82.74
54978;BME280;40873;47.522;19.106;2023-04-29T06:07:17;100267.66;;;11.10;83.76
54978;BME280;40873;47.522;19.106;2023-04-29T06:09:46;100258.34;;;11.05;84.84
54978;BME280;40873;47.522;19.106;2023-04-29T06:12:13;100265.34;;;11.06;83.72
54978;BME280;40873;47.522;19.106;2023-04-29T06:14:40;100273.25;;;11.06;83.75
54978;BME280;40873;47.522;19.106;2023-04-29T06:17:07;100275.78;;;11.07;84.58
54978;BME280;40873;47.522;19.106;2023-04-29T06:19:33;100274.09;;;11.06;83.97
54978;BME280;40873;47.522;19.106;2023-04-29T06:22:01;100285.25;;;11.24;81.77
54978;BME280;40873;47.522;19.106;2023-04-29T06:24:28;100285.53;;;11.19;81.26
54978;BME280;40873;47.522;19.106;2023-04-29T06:26:55;100284.06;;;11.15;83.98
54978;BME280;40873;47.522;19.106;2023-04-29T06:29:22;100281.44;;;11.15;82.80
54978;BME280;40873;47.522;19.106;2023-04-29T06:31:49;100290.53;;;11.24;81.73
54978;BME280;40873;47.522;19.106;2023-04-29T06:34:16;100276.09;;;11.30;81.21
54978;BME280;40873;47.522;19.106;2023-04-29T06:36:43;100282.53;;;11.25;81.62
54978;BME280;40873;47.522;19.106;2023-04-29T06:39:10;100277.69;;;11.32;81.61
54978;BME280;40873;47.522;19.106;2023-04-29T06:41:37;100282.91;;;11.34;81.83
54978;BME280;40873;47.522;19.106;2023-04-29T06:44:04;100281.84;;;11.36;82.27
54978;BME280;40873;47.522;19.106;2023-04-29T06:46:31;100282.69;;;11.37;82.12
54978;BME280;40873;47.522;19.106;2023-04-29T06:48:58;100284.94;;;11.43;82.04
54978;BME280;40873;47.522;19.106;2023-04-29T06:51:25;100279.03;;;11.52;80.78
54978;BME280;40873;47.522;19.106;2023-04-29T06:53:53;100283.72;;;11.61;79.85
54978;BME280;40873;47.522;19.106;2023-04-29T06:56:20;100285.06;;;11.54;78.77
54978;BME280;40873;47.522;19.106;2023-04-29T06:58:47;100287.22;;;11.62;78.43
54978;BME280;40873;47.522;19.106;2023-04-29T07:01:15;100289.38;;;11.69;79.12
54978;BME280;40873;47.522;19.106;2023-04-29T07:03:42;100287.81;;;11.79;76.25
54978;BME280;40873;47.522;19.106;2023-04-29T07:06:10;100290.44;;;11.79;76.67
54978;BME280;40873;47.522;19.106;2023-04-29T07:08:36;100289.22;;;11.85;78.83
54978;BME280;40873;47.522;19.106;2023-04-29T07:11:04;100282.88;;;11.88;80.02
54978;BME280;40873;47.522;19.106;2023-04-29T07:13:30;100289.13;;;11.87;80.60
54978;BME280;40873;47.522;19.106;2023-04-29T07:15:58;100281.41;;;11.84;78.59
54978;BME280;40873;47.522;19.106;2023-04-29T07:18:24;100281.47;;;11.82;77.46
54978;BME280;40873;47.522;19.106;2023-04-29T07:20:52;100282.44;;;11.81;77.29
54978;BME280;40873;47.522;19.106;2023-04-29T07:23:19;100286.88;;;11.80;76.51
54978;BME280;40873;47.522;19.106;2023-04-29T07:25:46;100286.09;;;11.78;75.43
54978;BME280;40873;47.522;19.106;2023-04-29T07:28:13;100285.16;;;11.79;77.28
54978;BME280;40873;47.522;19.106;2023-04-29T07:30:40;100293.84;;;11.82;76.79
54978;BME280;40873;47.522;19.106;2023-04-29T07:33:07;100291.22;;;11.82;76.32
54978;BME280;40873;47.522;19.106;2023-04-29T07:35:34;100280.63;;;11.82;75.55
54978;BME280;40873;47.522;19.106;2023-04-29T07:38:01;100285.75;;;11.85;75.93
54978;BME280;40873;47.522;19.106;2023-04-29T07:40:28;100288.09;;;11.89;75.20
54978;BME280;40873;47.522;19.106;2023-04-29T07:42:55;100283.75;;;12.01;75.07
54978;BME280;40873;47.522;19.106;2023-04-29T07:45:22;100286.50;;;11.99;74.35
54978;BME280;40873;47.522;19.106;2023-04-29T07:47:49;100277.09;;;12.08;74.21
54978;BME280;40873;47.522;19.106;2023-04-29T07:50:16;100288.84;;;12.17;74.10
54978;BME280;40873;47.522;19.106;2023-04-29T07:52:43;100289.81;;;12.28;71.86
54978;BME280;40873;47.522;19.106;2023-04-29T07:55:10;100295.75;;;12.32;71.93
54978;BME280;40873;47.522;19.106;2023-04-29T07:57:37;100292.25;;;12.44;69.76
54978;BME280;40873;47.522;19.106;2023-04-29T08:00:06;100295.00;;;12.55;69.99
54978;BME280;40873;47.522;19.106;2023-04-29T08:02:33;100295.31;;;12.63;68.63
54978;BME280;40873;47.522;19.106;2023-04-29T08:05:01;100300.41;;;12.67;68.21
54978;BME280;40873;47.522;19.106;2023-04-29T08:07:29;100306.56;;;12.80;67.43
54978;BME280;40873;47.522;19.106;2023-04-29T08:09:56;100297.31;;;12.85;67.50
54978;BME280;40873;47.522;19.106;2023-04-29T08:12:23;100294.75;;;12.97;66.52
54978;BME280;40873;47.522;19.106;2023-04-29T08:14:50;100295.34;;;13.13;66.06
54978;BME280;40873;47.522;19.106;2023-04-29T08:17:17;100294.66;;;13.35;66.40
54978;BME280;40873;47.522;19.106;2023-04-29T08:19:44;100299.16;;;13.58;63.80
54978;BME280;40873;47.522;19.106;2023-04-29T08:22:11;100296.91;;;13.65;62.78
54978;BME280;40873;47.522;19.106;2023-04-29T08:24:39;100299.38;;;13.79;64.69
54978;BME280;40873;47.522;19.106;2023-04-29T08:27:08;100298.34;;;13.93;65.71
54978;BME280;40873;47.522;19.106;2023-04-29T08:29:35;100309.59;;;14.08;65.38
54978;BME280;40873;47.522;19.106;2023-04-29T08:32:02;100307.41;;;14.02;63.00
54978;BME280;40873;47.522;19.106;2023-04-29T08:34:30;100307.53;;;14.11;62.89
54978;BME280;40873;47.522;19.106;2023-04-29T08:36:59;100301.38;;;14.11;60.43
54978;BME280;40873;47.522;19.106;2023-04-29T08:39:27;100302.03;;;14.14;62.24
54978;BME280;40873;47.522;19.106;2023-04-29T08:41:55;100299.88;;;14.19;62.03
54978;BME280;40873;47.522;19.106;2023-04-29T08:44:24;100297.94;;;14.21;61.25
54978;BME280;40873;47.522;19.106;2023-04-29T08:46:52;100302.91;;;14.37;61.27
54978;BME280;40873;47.522;19.106;2023-04-29T08:49:20;100300.19;;;14.50;61.55
54978;BME280;40873;47.522;19.106;2023-04-29T08:51:48;100300.13;;;14.39;57.70
54978;BME280;40873;47.522;19.106;2023-04-29T08:54:15;100300.91;;;14.52;59.56
54978;BME280;40873;47.522;19.106;2023-04-29T08:56:45;100307.22;;;14.62;59.52
54978;BME280;40873;47.522;19.106;2023-04-29T08:59:14;100304.81;;;14.24;55.48
54978;BME280;40873;47.522;19.106;2023-04-29T09:01:42;100312.38;;;14.17;56.46
54978;BME280;40873;47.522;19.106;2023-04-29T09:06:57;100302.28;;;14.22;56.71
54978;BME280;40873;47.522;19.106;2023-04-29T09:09:25;100309.00;;;14.15;57.05
54978;BME280;40873;47.522;19.106;2023-04-29T09:11:52;100314.06;;;14.07;55.99
54978;BME280;40873;47.522;19.106;2023-04-29T09:14:21;100319.88;;;14.12;57.47
54978;BME280;40873;47.522;19.106;2023-04-29T09:16:50;100311.41;;;14.18;55.65
54978;BME280;40873;47.522;19.106;2023-04-29T09:19:31;100313.59;;;14.24;55.15
54978;BME280;40873;47.522;19.106;2023-04-29T09:22:00;100314.00;;;14.31;55.61
54978;BME280;40873;47.522;19.106;2023-04-29T09:24:28;100313.72;;;14.23;58.40
54978;BME280;40873;47.522;19.106;2023-04-29T09:26:56;100310.50;;;14.31;56.16
54978;BME280;40873;47.522;19.106;2023-04-29T09:29:25;100313.91;;;14.33;55.28
54978;BME280;40873;47.522;19.106;2023-04-29T09:31:52;100314.16;;;14.41;54.76
54978;BME280;40873;47.522;19.106;2023-04-29T09:34:49;100311.78;;;14.60;54.30
54978;BME280;40873;47.522;19.106;2023-04-29T09:37:25;100307.94;;;14.64;53.89
54978;BME280;40873;47.522;19.106;2023-04-29T09:39:53;100315.88;;;14.64;55.79
54978;BME280;40873;47.522;19.106;2023-04-29T09:42:20;100302.97;;;14.71;53.31
54978;BME280;40873;47.522;19.106;2023-04-29T09:44:47;100309.63;;;14.76;54.95
54978;BME280;40873;47.522;19.106;2023-04-29T09:47:14;100308.31;;;14.82;55.14
54978;BME280;40873;47.522;19.106;2023-04-29T09:49:43;100302.63;;;14.87;55.55
54978;BME280;40873;47.522;19.106;2023-04-29T09:52:15;100299.47;;;14.93;53.11
54978;BME280;40873;47.522;19.106;2023-04-29T09:54:43;100298.75;;;14.91;51.29
54978;BME280;40873;47.522;19.106;2023-04-29T09:57:10;100298.63;;;14.92;52.06
54978;BME280;40873;47.522;19.106;2023-04-29T09:59:39;100292.34;;;14.93;51.67
54978;BME280;40873;47.522;19.106;2023-04-29T10:02:13;100293.31;;;15.03;51.81
54978;BME280;40873;47.522;19.106;2023-04-29T10:04:46;100295.00;;;15.04;50.98
54978;BME280;40873;47.522;19.106;2023-04-29T10:07:15;100295.09;;;15.25;51.41
54978;BME280;40873;47.522;19.106;2023-04-29T10:09:44;100296.66;;;15.39;49.84
54978;BME280;40873;47.522;19.106;2023-04-29T10:12:17;100290.19;;;15.53;50.80
54978;BME280;40873;47.522;19.106;2023-04-29T10:14:51;100285.97;;;15.61;50.63
54978;BME280;40873;47.522;19.106;2023-04-29T10:17:51;100294.91;;;15.72;48.25
54978;BME280;40873;47.522;19.106;2023-04-29T10:20:24;100288.81;;;15.81;48.01
54978;BME280;40873;47.522;19.106;2023-04-29T10:22:52;100281.34;;;15.96;48.46
54978;BME280;40873;47.522;19.106;2023-04-29T10:25:25;100287.06;;;16.12;48.96
54978;BME280;40873;47.522;19.106;2023-04-29T10:27:54;100285.25;;;16.33;46.97
54978;BME280;40873;47.522;19.106;2023-04-29T10:30:22;100286.72;;;16.47;46.99
54978;BME280;40873;47.522;19.106;2023-04-29T10:32:49;100278.50;;;16.29;46.44
54978;BME280;40873;47.522;19.106;2023-04-29T10:35:19;100282.66;;;16.43;47.22
54978;BME280;40873;47.522;19.106;2023-04-29T10:37:49;100276.44;;;16.63;47.71
54978;BME280;40873;47.522;19.106;2023-04-29T10:40:49;100265.78;;;16.84;46.25
54978;BME280;40873;47.522;19.106;2023-04-29T10:43:22;100263.22;;;16.83;45.96
54978;BME280;40873;47.522;19.106;2023-04-29T10:46:16;100261.06;;;16.97;46.50
54978;BME280;40873;47.522;19.106;2023-04-29T10:48:44;100251.09;;;17.09;46.50
54978;BME280;40873;47.522;19.106;2023-04-29T10:51:12;100250.72;;;17.23;46.80
54978;BME280;40873;47.522;19.106;2023-04-29T10:56:42;100238.69;;;17.97;45.62
54978;BME280;40873;47.522;19.106;2023-04-29T10:59:14;100236.72;;;18.08;43.52
54978;BME280;40873;47.522;19.106;2023-04-29T11:04:12;100230.53;;;17.98;43.09
54978;BME280;40873;47.522;19.106;2023-04-29T11:06:43;100220.59;;;17.91;45.67
54978;BME280;40873;47.522;19.106;2023-04-29T11:12:04;100216.13;;;17.82;44.18
54978;BME280;40873;47.522;19.106;2023-04-29T11:17:08;100221.84;;;17.96;44.00
